STAZIONE METEO DI BARCELLONA P.G. CENTRO
Dati campionati ogni minuto da Consolle Davis Vantage Pro 2
ed inviati alla rete mediante server Anemos WDS5 wview



Barcellona P.G. Ovest  Barcellona P.G. Ovest


Golfo di Patti  Golfo di Patti


Thunder radar more information blitzortung!


Rain radar  rain snow radar


altri nostri siti meteo:

Rete NOAA MADIS

Italia Meteo Network

Pomeziameteo

Varazze Meteo



Nessuna attenzione particolare richiesta.    Non ci sono allerte meteo

Weather Underground Storia pagina Testo

Quotidiano Riepilogo per novembre 24, 2017 Unità:  Metrico    Inglese   Entrambi
« Indietro Day
Avanti Day »
Quotidiano Settimanale mensile Annuale Personalizzato
  Attuale: Max: Min: Media:
Temperatura: 12.6 °C 18.4 °C 11.1 °C 14.6 °C
P.to Rugiada: 8.4 °C 12.2 °C 8.3 °C 10.3 °C
Umidità: 76 % 86 % 64 % 76 %
Vel. Vento: 6.4 km/h 11.3 km/h 0.0 km/h 2.1 km/h
Raffiche: 8.0 km/h 16.1 km/h - -
Vento:ESE - - South
Pressione: 1022.9 hPa 1023.2 hPa 1021.9 hPa -
Precipitazioni: 0.0 mm      
Historical Graphs
 
 
Dati di tabella per il novembre 24, 2017
Tempo Temperatura P.to Rugiada Pressione Vento Vel. Vento Raffiche Umidità Tasso delle precipitazioni (oraria) solare
00:00 11.9 °C 9.1 °C 1022.2 hPa ESE 1.6 km/h 4.8 km/h 83 % 0.0 mm 0 W/m2
00:05 11.9 °C 9.1 °C 1022.2 hPa ESE 6.4 km/h 12.9 km/h 83 % 0.0 mm 0 W/m2
00:10 11.8 °C 9.0 °C 1022.2 hPa Calm   11.3 km/h 83 % 0.0 mm 0 W/m2
00:15 11.8 °C 9.0 °C 1022.2 hPa ESE 8.0 km/h 12.9 km/h 83 % 0.0 mm 0 W/m2
00:20 11.8 °C 9.0 °C 1022.2 hPa ESE 3.2 km/h 12.9 km/h 83 % 0.0 mm 0 W/m2
00:25 11.8 °C 9.0 °C 1022.2 hPa ESE 8.0 km/h 8.0 km/h 83 % 0.0 mm 0 W/m2
00:35 11.8 °C 9.0 °C 1022.6 hPa Calm   6.4 km/h 83 % 0.0 mm 0 W/m2
00:40 11.8 °C 9.0 °C 1022.6 hPa ESE 3.2 km/h 8.0 km/h 83 % 0.0 mm 0 W/m2
00:50 11.8 °C 9.0 °C 1022.6 hPa Calm   4.8 km/h 83 % 0.0 mm 0 W/m2
00:55 11.8 °C 9.0 °C 1022.6 hPa ESE 4.8 km/h 14.5 km/h 83 % 0.0 mm 0 W/m2
01:05 11.8 °C 8.9 °C 1022.6 hPa ESE 4.8 km/h 12.9 km/h 83 % 0.0 mm 0 W/m2
01:10 11.7 °C 8.9 °C 1022.6 hPa Calm   11.3 km/h 83 % 0.0 mm 0 W/m2
01:15 11.7 °C 8.8 °C 1022.6 hPa Calm   11.3 km/h 83 % 0.0 mm 0 W/m2
01:25 11.6 °C 8.8 °C 1022.6 hPa Calm   6.4 km/h 83 % 0.0 mm 0 W/m2
01:30 11.6 °C 8.8 °C 1022.6 hPa ESE 1.6 km/h 11.3 km/h 83 % 0.0 mm 0 W/m2
01:45 11.6 °C 8.8 °C 1022.2 hPa Calm   12.9 km/h 83 % 0.0 mm 0 W/m2
01:55 11.6 °C 8.7 °C 1022.2 hPa Calm   8.0 km/h 83 % 0.0 mm 0 W/m2
02:00 11.6 °C 8.7 °C 1022.2 hPa Calm   8.0 km/h 83 % 0.0 mm 0 W/m2
02:05 11.6 °C 8.7 °C 1022.2 hPa Calm   6.4 km/h 83 % 0.0 mm 0 W/m2
02:10 11.6 °C 8.7 °C 1022.2 hPa Calm   8.0 km/h 83 % 0.0 mm 0 W/m2
02:15 11.6 °C 8.7 °C 1022.2 hPa ESE 6.4 km/h 8.0 km/h 83 % 0.0 mm 0 W/m2
02:25 11.5 °C 8.7 °C 1021.9 hPa Calm   12.9 km/h 83 % 0.0 mm 0 W/m2
02:30 11.5 °C 8.7 °C 1021.9 hPa Calm   6.4 km/h 83 % 0.0 mm 0 W/m2
02:35 11.5 °C 8.9 °C 1021.9 hPa ESE 1.6 km/h 12.9 km/h 84 % 0.0 mm 0 W/m2
02:40 11.4 °C 8.8 °C 1021.9 hPa Calm   6.4 km/h 84 % 0.0 mm 0 W/m2
02:45 11.4 °C 8.8 °C 1021.9 hPa Calm   8.0 km/h 84 % 0.0 mm 0 W/m2
03:00 11.4 °C 8.8 °C 1021.9 hPa ESE 11.3 km/h 11.3 km/h 84 % 0.0 mm 0 W/m2
03:15 11.4 °C 8.8 °C 1021.9 hPa ESE 4.8 km/h 11.3 km/h 84 % 0.0 mm 0 W/m2
03:25 11.3 °C 8.7 °C 1021.9 hPa Calm   11.3 km/h 84 % 0.0 mm 0 W/m2
03:30 11.3 °C 8.7 °C 1021.9 hPa ESE 11.3 km/h 12.9 km/h 84 % 0.0 mm 0 W/m2
03:35 11.3 °C 8.7 °C 1021.9 hPa ESE 4.8 km/h 12.9 km/h 84 % 0.0 mm 0 W/m2
03:40 11.3 °C 8.7 °C 1021.9 hPa Calm   12.9 km/h 84 % 0.0 mm 0 W/m2
03:45 11.3 °C 8.7 °C 1021.9 hPa Calm   8.0 km/h 84 % 0.0 mm 0 W/m2
03:50 11.3 °C 8.7 °C 1021.9 hPa Calm   6.4 km/h 84 % 0.0 mm 0 W/m2
03:55 11.3 °C 8.7 °C 1021.9 hPa Calm   12.9 km/h 84 % 0.0 mm 0 W/m2
04:05 11.3 °C 8.7 °C 1022.2 hPa Calm   8.0 km/h 84 % 0.0 mm 0 W/m2
04:10 11.3 °C 8.7 °C 1022.2 hPa ESE 8.0 km/h 8.0 km/h 84 % 0.0 mm 0 W/m2
04:15 11.2 °C 8.6 °C 1022.2 hPa Calm   11.3 km/h 84 % 0.0 mm 0 W/m2
04:25 11.1 °C 8.5 °C 1022.2 hPa Calm   11.3 km/h 84 % 0.0 mm 0 W/m2
04:30 11.1 °C 8.5 °C 1022.2 hPa Calm   8.0 km/h 84 % 0.0 mm 0 W/m2
04:35 11.1 °C 8.5 °C 1022.2 hPa Calm   11.3 km/h 84 % 0.0 mm 0 W/m2
04:40 11.1 °C 8.5 °C 1022.2 hPa Calm   6.4 km/h 84 % 0.0 mm 0 W/m2
04:45 11.2 °C 8.6 °C 1022.2 hPa Calm   12.9 km/h 84 % 0.0 mm 0 W/m2
04:50 11.1 °C 8.7 °C 1022.2 hPa ESE 1.6 km/h 12.9 km/h 85 % 0.0 mm 0 W/m2
04:55 11.2 °C 8.7 °C 1022.6 hPa ESE 8.0 km/h 12.9 km/h 85 % 0.0 mm 0 W/m2
05:00 11.2 °C 8.7 °C 1022.6 hPa Calm   11.3 km/h 85 % 0.0 mm 0 W/m2
05:05 11.2 °C 8.7 °C 1022.6 hPa Calm   1.6 km/h 85 % 0.0 mm 0 W/m2
05:10 11.2 °C 8.7 °C 1022.6 hPa ESE 1.6 km/h 6.4 km/h 85 % 0.0 mm 0 W/m2
05:15 11.2 °C 8.7 °C 1022.6 hPa Calm   9.7 km/h 85 % 0.0 mm 0 W/m2
05:20 11.2 °C 8.8 °C 1022.6 hPa Calm   4.8 km/h 85 % 0.0 mm 0 W/m2
05:30 11.3 °C 8.8 °C 1022.6 hPa SE 4.8 km/h 12.9 km/h 85 % 0.0 mm 0 W/m2
05:35 11.4 °C 9.0 °C 1022.6 hPa Calm   12.9 km/h 85 % 0.0 mm 0 W/m2
05:40 11.4 °C 9.0 °C 1022.6 hPa ESE 3.2 km/h 12.9 km/h 85 % 0.0 mm 0 W/m2
05:45 11.5 °C 9.1 °C 1022.9 hPa Calm   11.3 km/h 85 % 0.0 mm 0 W/m2
05:55 11.5 °C 9.2 °C 1022.6 hPa East 4.8 km/h 12.9 km/h 86 % 0.0 mm 0 W/m2
06:00 11.6 °C 9.3 °C 1022.9 hPa ESE 6.4 km/h 12.9 km/h 86 % 0.0 mm 0 W/m2
06:05 11.6 °C 9.3 °C 1022.9 hPa ESE 6.4 km/h 12.9 km/h 86 % 0.0 mm 0 W/m2
06:10 11.7 °C 9.4 °C 1022.6 hPa SE 8.0 km/h 12.9 km/h 86 % 0.0 mm 0 W/m2
06:15 11.7 °C 9.4 °C 1022.6 hPa Calm   8.0 km/h 86 % 0.0 mm 0 W/m2
06:25 11.7 °C 9.4 °C 1022.6 hPa Calm   8.0 km/h 86 % 0.0 mm 0 W/m2
06:30 11.7 °C 9.4 °C 1022.6 hPa ESE 3.2 km/h 11.3 km/h 86 % 0.0 mm 0 W/m2
06:35 11.7 °C 9.4 °C 1022.6 hPa Calm   8.0 km/h 86 % 0.0 mm 0 W/m2
06:40 11.7 °C 9.4 °C 1022.6 hPa Calm   6.4 km/h 86 % 0.0 mm 0 W/m2
06:50 11.6 °C 9.3 °C 1022.9 hPa ESE 4.8 km/h 11.3 km/h 86 % 0.0 mm 0 W/m2
06:55 11.6 °C 9.3 °C 1022.9 hPa Calm   8.0 km/h 86 % 0.0 mm 5 W/m2
07:00 11.5 °C 9.2 °C 1022.9 hPa Calm   6.4 km/h 86 % 0.0 mm 7 W/m2
07:10 11.5 °C 9.1 °C 1022.9 hPa SE 4.8 km/h 12.9 km/h 85 % 0.0 mm 14 W/m2
07:15 11.6 °C 9.1 °C 1022.9 hPa Calm   12.9 km/h 85 % 0.0 mm 18 W/m2
07:30 11.6 °C 9.1 °C 1023.2 hPa Calm   9.7 km/h 85 % 0.0 mm 39 W/m2
07:35 11.7 °C 9.2 °C 1023.2 hPa ESE 1.6 km/h 8.0 km/h 85 % 0.0 mm 49 W/m2
07:40 11.8 °C 9.2 °C 1023.2 hPa Calm   12.9 km/h 84 % 0.0 mm 58 W/m2
07:45 12.0 °C 9.2 °C 1022.9 hPa Calm   16.1 km/h 83 % 0.0 mm 69 W/m2
07:55 12.3 °C 9.3 °C 1022.9 hPa ESE 4.8 km/h 11.3 km/h 82 % 0.0 mm 95 W/m2
08:05 12.6 °C 9.6 °C 1023.2 hPa Calm   8.0 km/h 82 % 0.0 mm 128 W/m2
08:10 12.7 °C 9.4 °C 1022.9 hPa Calm   6.4 km/h 81 % 0.0 mm 141 W/m2
08:15 12.8 °C 9.6 °C 1022.9 hPa Calm     81 % 0.0 mm 160 W/m2
08:20 13.1 °C 9.8 °C 1022.9 hPa ESE 3.2 km/h 11.3 km/h 81 % 0.0 mm 169 W/m2
08:30 13.6 °C 9.9 °C 1022.9 hPa ESE 3.2 km/h 6.4 km/h 79 % 0.0 mm 200 W/m2
08:40 13.9 °C 10.2 °C 1022.9 hPa Calm   6.4 km/h 78 % 0.0 mm 229 W/m2
08:45 14.2 °C 10.3 °C 1022.9 hPa Calm   4.8 km/h 78 % 0.0 mm 234 W/m2
08:50 14.3 °C 10.3 °C 1022.9 hPa Calm   8.0 km/h 77 % 0.0 mm 250 W/m2
08:55 14.6 °C 10.3 °C 1022.9 hPa Calm   9.7 km/h 76 % 0.0 mm 267 W/m2
09:05 15.1 °C 10.4 °C 1022.9 hPa Calm   3.2 km/h 74 % 0.0 mm 308 W/m2
09:10 15.4 °C 10.6 °C 1022.9 hPa Calm   4.8 km/h 73 % 0.0 mm 330 W/m2
09:15 15.7 °C 10.6 °C 1022.9 hPa Calm     72 % 0.0 mm 346 W/m2
09:20 16.0 °C 10.5 °C 1022.9 hPa Calm     70 % 0.0 mm 353 W/m2
09:25 16.2 °C 10.7 °C 1022.9 hPa Calm     70 % 0.0 mm 357 W/m2
09:30 16.3 °C 11.0 °C 1023.2 hPa Calm     71 % 0.0 mm 352 W/m2
09:35 16.4 °C 11.1 °C 1023.2 hPa Calm     71 % 0.0 mm 360 W/m2
09:55 16.8 °C 11.1 °C 1023.2 hPa Calm     69 % 0.0 mm 396 W/m2
10:00 17.0 °C 11.0 °C 1023.2 hPa Calm     68 % 0.0 mm 413 W/m2
10:05 17.2 °C 11.0 °C 1023.2 hPa Calm     67 % 0.0 mm 383 W/m2
10:10 17.3 °C 11.1 °C 1023.2 hPa Calm     67 % 0.0 mm 415 W/m2
10:20 17.4 °C 11.0 °C 1023.2 hPa Calm     66 % 0.0 mm 380 W/m2
10:25 17.7 °C 11.4 °C 1023.2 hPa Calm     67 % 0.0 mm 403 W/m2
10:30 17.8 °C 11.1 °C 1023.2 hPa Calm     65 % 0.0 mm 374 W/m2
10:35 17.9 °C 11.2 °C 1023.2 hPa Calm     65 % 0.0 mm 383 W/m2
10:45 17.8 °C 11.1 °C 1022.9 hPa Calm   1.6 km/h 65 % 0.0 mm 422 W/m2
10:50 17.7 °C 11.0 °C 1022.9 hPa Calm   9.7 km/h 65 % 0.0 mm 432 W/m2
10:55 17.7 °C 11.0 °C 1022.9 hPa Calm   3.2 km/h 65 % 0.0 mm 445 W/m2
11:00 17.7 °C 11.2 °C 1022.9 hPa Calm   9.7 km/h 66 % 0.0 mm 450 W/m2
11:10 17.7 °C 11.0 °C 1022.9 hPa Calm   8.0 km/h 65 % 0.0 mm 457 W/m2
11:15 17.8 °C 11.1 °C 1022.6 hPa NNW 11.3 km/h 11.3 km/h 65 % 0.0 mm 471 W/m2
11:25 18.0 °C 11.3 °C 1022.6 hPa North 1.6 km/h 8.0 km/h 65 % 0.0 mm 485 W/m2
11:30 18.1 °C 11.4 °C 1022.6 hPa WNW 6.4 km/h 9.7 km/h 65 % 0.0 mm 487 W/m2
11:35 18.0 °C 11.5 °C 1022.6 hPa Calm   11.3 km/h 66 % 0.0 mm 485 W/m2
11:40 18.0 °C 11.5 °C 1022.6 hPa WNW 4.8 km/h 11.3 km/h 66 % 0.0 mm 489 W/m2
11:45 18.0 °C 11.5 °C 1022.6 hPa NW 4.8 km/h 8.0 km/h 66 % 0.0 mm 487 W/m2
11:55 18.1 °C 11.6 °C 1022.6 hPa Calm   8.0 km/h 66 % 0.0 mm 482 W/m2
12:00 18.2 °C 11.7 °C 1022.6 hPa Calm   9.7 km/h 66 % 0.0 mm 475 W/m2
12:10 18.4 °C 11.5 °C 1022.6 hPa NNW 3.2 km/h 4.8 km/h 64 % 0.0 mm 450 W/m2
12:20 18.2 °C 11.7 °C 1022.6 hPa North 6.4 km/h 8.0 km/h 66 % 0.0 mm 439 W/m2
12:30 18.2 °C 11.9 °C 1022.6 hPa West 4.8 km/h 9.7 km/h 67 % 0.0 mm 450 W/m2
12:35 18.2 °C 11.9 °C 1022.6 hPa WNW 3.2 km/h 11.3 km/h 67 % 0.0 mm 457 W/m2
12:40 18.3 °C 12.0 °C 1022.6 hPa West 4.8 km/h 14.5 km/h 67 % 0.0 mm 450 W/m2
12:45 18.3 °C 12.1 °C 1022.6 hPa NW 1.6 km/h 6.4 km/h 67 % 0.0 mm 436 W/m2
12:50 18.2 °C 11.9 °C 1022.6 hPa NW 6.4 km/h 8.0 km/h 67 % 0.0 mm 425 W/m2
12:55 18.2 °C 11.9 °C 1022.6 hPa Calm   11.3 km/h 67 % 0.0 mm 420 W/m2
13:00 18.2 °C 11.7 °C 1022.6 hPa Calm   9.7 km/h 66 % 0.0 mm 427 W/m2
13:05 18.2 °C 11.7 °C 1022.6 hPa West 6.4 km/h 11.3 km/h 66 % 0.0 mm 438 W/m2
13:10 18.2 °C 11.9 °C 1022.6 hPa NW 4.8 km/h 11.3 km/h 67 % 0.0 mm 427 W/m2
13:15 18.1 °C 11.8 °C 1022.2 hPa WNW 3.2 km/h 8.0 km/h 67 % 0.0 mm 403 W/m2
13:20 18.1 °C 11.8 °C 1022.2 hPa West 1.6 km/h 9.7 km/h 67 % 0.0 mm 397 W/m2
13:25 18.2 °C 11.9 °C 1022.2 hPa WSW 4.8 km/h 11.3 km/h 67 % 0.0 mm 387 W/m2
13:30 18.2 °C 11.9 °C 1022.2 hPa Calm   8.0 km/h 67 % 0.0 mm 387 W/m2
13:35 18.2 °C 11.9 °C 1022.2 hPa Calm   6.4 km/h 67 % 0.0 mm 376 W/m2
13:40 18.2 °C 11.9 °C 1022.2 hPa NW 3.2 km/h 4.8 km/h 67 % 0.0 mm 366 W/m2
13:50 18.2 °C 11.9 °C 1022.2 hPa West 3.2 km/h 9.7 km/h 67 % 0.0 mm 350 W/m2
13:55 18.2 °C 11.9 °C 1022.2 hPa Calm   11.3 km/h 67 % 0.0 mm 338 W/m2
14:00 18.2 °C 11.9 °C 1022.2 hPa Calm   4.8 km/h 67 % 0.0 mm 325 W/m2
14:05 18.2 °C 11.9 °C 1022.2 hPa NW 4.8 km/h 6.4 km/h 67 % 0.0 mm 323 W/m2
14:10 18.1 °C 11.6 °C 1022.2 hPa Calm   8.0 km/h 66 % 0.0 mm 313 W/m2
14:15 18.1 °C 11.8 °C 1022.2 hPa NW 1.6 km/h 8.0 km/h 67 % 0.0 mm 301 W/m2
14:20 18.1 °C 11.8 °C 1022.2 hPa West 6.4 km/h 8.0 km/h 67 % 0.0 mm 288 W/m2
14:25 18.1 °C 11.8 °C 1022.2 hPa Calm   6.4 km/h 67 % 0.0 mm 276 W/m2
14:30 18.3 °C 12.0 °C 1022.2 hPa West 6.4 km/h 8.0 km/h 67 % 0.0 mm 257 W/m2
14:35 18.3 °C 11.8 °C 1022.2 hPa WNW 1.6 km/h 9.7 km/h 66 % 0.0 mm 253 W/m2
14:40 18.2 °C 11.9 °C 1022.2 hPa Calm   9.7 km/h 67 % 0.0 mm 244 W/m2
14:45 18.2 °C 11.9 °C 1022.2 hPa Calm   6.4 km/h 67 % 0.0 mm 237 W/m2
14:50 18.1 °C 11.8 °C 1022.2 hPa West 3.2 km/h 8.0 km/h 67 % 0.0 mm 221 W/m2
14:55 18.1 °C 11.8 °C 1022.2 hPa Calm   8.0 km/h 67 % 0.0 mm 211 W/m2
15:00 18.0 °C 12.0 °C 1022.2 hPa WNW 3.2 km/h 8.0 km/h 68 % 0.0 mm 200 W/m2
15:05 18.0 °C 12.0 °C 1022.2 hPa Calm   4.8 km/h 68 % 0.0 mm 190 W/m2
15:10 18.1 °C 12.0 °C 1022.2 hPa Calm     68 % 0.0 mm 178 W/m2
15:15 18.1 °C 12.1 °C 1022.2 hPa NW 3.2 km/h 8.0 km/h 68 % 0.0 mm 165 W/m2
15:20 18.1 °C 12.1 °C 1022.2 hPa Calm   4.8 km/h 68 % 0.0 mm 153 W/m2
15:25 18.1 °C 12.1 °C 1022.2 hPa Calm     68 % 0.0 mm 141 W/m2
15:30 18.1 °C 12.1 °C 1022.2 hPa Calm     68 % 0.0 mm 127 W/m2
15:35 18.1 °C 12.0 °C 1022.2 hPa Calm   4.8 km/h 68 % 0.0 mm 111 W/m2
15:40 18.0 °C 12.0 °C 1022.2 hPa Calm   4.8 km/h 68 % 0.0 mm 88 W/m2
15:45 18.0 °C 12.2 °C 1022.2 hPa WNW 4.8 km/h 6.4 km/h 69 % 0.0 mm 72 W/m2
15:50 17.9 °C 12.2 °C 1022.2 hPa Calm   6.4 km/h 69 % 0.0 mm 63 W/m2
15:55 17.8 °C 12.1 °C 1022.2 hPa Calm     69 % 0.0 mm 60 W/m2
16:00 17.8 °C 12.0 °C 1022.2 hPa Calm     69 % 0.0 mm 46 W/m2
16:05 17.8 °C 12.0 °C 1022.2 hPa Calm     69 % 0.0 mm 40 W/m2
16:10 17.7 °C 11.9 °C 1022.2 hPa Calm     69 % 0.0 mm 33 W/m2
16:15 17.6 °C 12.0 °C 1022.2 hPa Calm     70 % 0.0 mm 26 W/m2
16:20 17.4 °C 11.9 °C 1022.2 hPa Calm     70 % 0.0 mm 23 W/m2
16:25 17.3 °C 11.8 °C 1022.2 hPa Calm     70 % 0.0 mm 19 W/m2
16:30 17.2 °C 11.9 °C 1022.2 hPa Calm     71 % 0.0 mm 16 W/m2
16:35 17.1 °C 12.0 °C 1022.2 hPa Calm     72 % 0.0 mm 11 W/m2
16:40 17.0 °C 11.9 °C 1022.2 hPa Calm     72 % 0.0 mm 7 W/m2
16:45 16.9 °C 11.8 °C 1022.2 hPa Calm     72 % 0.0 mm 0 W/m2
16:50 16.5 °C 11.6 °C 1022.2 hPa Calm   4.8 km/h 73 % 0.0 mm 0 W/m2
16:55 15.9 °C 11.5 °C 1022.2 hPa Calm   4.8 km/h 75 % 0.0 mm 0 W/m2
17:00 15.6 °C 11.5 °C 1022.2 hPa Calm   8.0 km/h 77 % 0.0 mm 0 W/m2
17:05 15.3 °C 11.4 °C 1022.2 hPa Calm   12.9 km/h 78 % 0.0 mm 0 W/m2
17:10 15.0 °C 11.3 °C 1022.6 hPa Calm   6.4 km/h 79 % 0.0 mm 0 W/m2
17:15 14.8 °C 11.2 °C 1022.6 hPa ESE 1.6 km/h 8.0 km/h 79 % 0.0 mm 0 W/m2
17:20 14.6 °C 11.1 °C 1022.6 hPa Calm   11.3 km/h 80 % 0.0 mm 0 W/m2
17:25 14.4 °C 10.9 °C 1022.6 hPa ESE 1.6 km/h 9.7 km/h 80 % 0.0 mm 0 W/m2
17:30 14.3 °C 11.1 °C 1022.6 hPa ESE 3.2 km/h 6.4 km/h 81 % 0.0 mm 0 W/m2
17:35 14.1 °C 10.9 °C 1022.6 hPa ESE 6.4 km/h 12.9 km/h 81 % 0.0 mm 0 W/m2
17:40 14.1 °C 10.8 °C 1022.6 hPa SE 4.8 km/h 8.0 km/h 81 % 0.0 mm 0 W/m2
17:45 13.9 °C 10.9 °C 1022.6 hPa Calm   11.3 km/h 82 % 0.0 mm 0 W/m2
17:50 13.9 °C 10.9 °C 1022.6 hPa Calm   9.7 km/h 82 % 0.0 mm 0 W/m2
17:55 13.9 °C 10.9 °C 1022.6 hPa Calm   8.0 km/h 82 % 0.0 mm 0 W/m2
18:00 13.9 °C 10.8 °C 1022.6 hPa ESE 1.6 km/h 8.0 km/h 82 % 0.0 mm 0 W/m2
18:05 13.8 °C 10.7 °C 1022.6 hPa SE 1.6 km/h 8.0 km/h 82 % 0.0 mm 0 W/m2
18:10 13.7 °C 10.4 °C 1022.6 hPa ESE 11.3 km/h 11.3 km/h 81 % 0.0 mm 0 W/m2
18:15 13.6 °C 10.3 °C 1022.6 hPa ESE 3.2 km/h 11.3 km/h 81 % 0.0 mm 0 W/m2
18:20 13.5 °C 10.1 °C 1022.6 hPa ESE 4.8 km/h 11.3 km/h 80 % 0.0 mm 0 W/m2
18:25 13.4 °C 9.8 °C 1022.6 hPa ESE 6.4 km/h 11.3 km/h 79 % 0.0 mm 0 W/m2
18:30 13.3 °C 9.7 °C 1022.6 hPa ESE 4.8 km/h 8.0 km/h 79 % 0.0 mm 0 W/m2
18:35 13.3 °C 9.7 °C 1022.6 hPa ESE 4.8 km/h 11.3 km/h 79 % 0.0 mm 0 W/m2
18:40 13.2 °C 9.4 °C 1022.6 hPa SE 8.0 km/h 8.0 km/h 78 % 0.0 mm 0 W/m2
18:45 13.2 °C 9.4 °C 1022.6 hPa Calm   12.9 km/h 78 % 0.0 mm 0 W/m2
18:50 13.1 °C 9.2 °C 1022.9 hPa ESE 11.3 km/h 12.9 km/h 77 % 0.0 mm 0 W/m2
18:55 13.1 °C 9.1 °C 1022.6 hPa SE 3.2 km/h 11.3 km/h 77 % 0.0 mm 0 W/m2
19:00 13.0 °C 9.1 °C 1022.6 hPa ESE 3.2 km/h 11.3 km/h 77 % 0.0 mm 0 W/m2
19:05 12.9 °C 8.7 °C 1022.9 hPa ESE 11.3 km/h 12.9 km/h 76 % 0.0 mm 0 W/m2
19:10 12.8 °C 8.6 °C 1022.9 hPa ESE 6.4 km/h 12.9 km/h 76 % 0.0 mm 0 W/m2
19:15 12.7 °C 8.6 °C 1022.9 hPa ESE 4.8 km/h 12.9 km/h 76 % 0.0 mm 0 W/m2
19:20 12.7 °C 8.3 °C 1022.6 hPa ESE 3.2 km/h 11.3 km/h 75 % 0.0 mm 0 W/m2
19:25 12.7 °C 8.3 °C 1022.9 hPa ESE 6.4 km/h 12.9 km/h 75 % 0.0 mm 0 W/m2
19:30 12.6 °C 8.3 °C 1022.9 hPa ESE 8.0 km/h 12.9 km/h 75 % 0.0 mm 0 W/m2
19:35 12.6 °C 8.4 °C 1022.9 hPa ESE 6.4 km/h 8.0 km/h 76 % 0.0 mm 0 W/m2
Stazione meteo di Barcellona P.G. real time
complimenti di Weather Underground - 4 mb

Script sviluppato da  Jim McMurry - jmcmurry@mwt.net Adattato per il modello da  Wim van der Kuil - Leuven-Template.eu

Potete trovare le nostre info meteo anche a:

European Weather Network

Weather Underground

AWEKAS

Citizen Weather Observer Program (CWOP)

HAMweather, WeatherForYou, PWS Weather

Strumentazione usata:

Stazione meteo
Davis VP2

Programma gestore dati meteo
WVIEW

Server per i dati meteo
WDS5 Ecoblack

Davis VP2

WVIEW

WDS5 Ecoblack